createdAt,value
2018-05-07T12:34:46.315Z,2.67
2018-05-07T12:34:59.215Z,2.40
2018-05-07T12:35:12.055Z,2.50
2018-05-07T12:35:25.234Z,2.50
2018-05-07T12:35:38.345Z,2.42
2018-05-07T12:35:51.464Z,2.50
2018-05-07T12:36:04.380Z,2.42
2018-05-07T12:36:17.565Z,2.50
2018-05-07T12:36:30.351Z,2.58
2018-05-07T12:36:43.251Z,2.75
2018-05-07T12:36:56.153Z,2.62
2018-05-07T12:37:09.051Z,2.50
2018-05-07T12:37:21.954Z,2.58
2018-05-07T12:37:34.919Z,2.50
2018-05-07T12:37:47.991Z,2.40
2018-05-07T12:38:00.871Z,2.30
2018-05-07T12:38:13.691Z,2.78
2018-05-07T12:38:54.731Z,2.75
2018-05-07T12:39:07.851Z,2.60
2018-05-07T12:39:20.971Z,2.53
2018-05-07T12:39:34.071Z,2.30
2018-05-07T12:39:47.171Z,2.40
2018-05-07T12:40:00.757Z,2.70
2018-05-07T12:40:14.416Z,2.50
2018-05-07T12:40:27.767Z,2.50
2018-05-07T12:40:41.281Z,2.60
2018-05-07T12:40:54.601Z,2.60
2018-05-07T12:41:08.208Z,2.67
2018-05-07T12:41:21.657Z,2.50
2018-05-07T12:41:35.050Z,2.53
2018-05-07T12:41:48.211Z,2.65
2018-05-07T12:42:01.929Z,2.60
2018-05-07T12:42:15.034Z,2.53
2018-05-07T12:42:28.129Z,2.70
2018-05-07T12:42:41.252Z,2.80
2018-05-07T12:42:55.123Z,2.70
2018-05-07T12:43:08.312Z,2.50
2018-05-07T12:43:21.584Z,2.60
2018-05-07T12:43:35.223Z,2.65
2018-05-07T12:43:48.683Z,2.62
2018-05-07T12:44:02.343Z,2.60
2018-05-07T13:47:50.707Z,2.83
2018-05-07T13:48:04.097Z,2.72
2018-05-07T13:48:17.257Z,2.72
2018-05-07T13:48:30.257Z,2.40
2018-05-07T13:48:43.537Z,2.22
2018-05-07T13:48:56.852Z,2.25
2018-05-07T13:49:10.167Z,2.20
2018-05-07T13:49:23.310Z,2.25
2018-05-07T13:49:37.434Z,2.20
2018-05-07T13:49:51.634Z,2.15
2018-05-07T13:50:04.754Z,2.10
2018-05-07T13:50:17.635Z,2.10
2018-05-07T13:50:30.555Z,1.92
2018-05-07T13:50:43.315Z,1.98
2018-05-07T13:50:56.392Z,1.90
2018-05-07T13:51:09.712Z,2.00
2018-05-07T13:51:22.834Z,2.10
2018-05-07T13:51:35.834Z,2.62
2018-05-07T13:51:49.034Z,3.08
2018-05-07T13:52:02.154Z,2.90
2018-05-07T13:52:15.155Z,2.50
2018-05-07T13:52:28.194Z,2.30
2018-05-07T13:52:41.274Z,2.28
2018-05-07T13:52:54.395Z,2.22
2018-05-07T13:53:07.699Z,2.30
2018-05-07T13:53:20.899Z,2.20
2018-05-07T13:53:33.899Z,2.50
2018-05-07T13:53:47.220Z,2.80
2018-05-07T13:54:00.564Z,2.75
2018-05-07T13:54:13.964Z,2.50
2018-05-07T13:54:26.845Z,2.12
2018-05-07T13:54:39.764Z,2.10
2018-05-07T13:54:52.765Z,2.20
2018-05-07T13:55:05.844Z,2.07
2018-05-07T13:55:18.965Z,1.92
2018-05-07T13:55:31.891Z,2.00
2018-05-07T14:05:31.647Z,2.00
2018-05-07T14:05:45.130Z,2.10
2018-05-07T14:05:59.072Z,2.00
2018-05-07T14:06:12.496Z,2.00
2018-05-07T14:06:25.974Z,2.28
2018-05-07T14:06:39.238Z,2.45
2018-05-07T14:06:52.234Z,2.40
2018-05-07T14:07:05.254Z,2.15
2018-05-07T14:07:18.434Z,2.20
2018-05-07T14:09:25.778Z,2.00
2018-05-07T14:09:38.893Z,2.10
2018-05-07T14:09:51.815Z,2.22
2018-05-07T14:10:04.719Z,2.25
2018-05-07T14:10:18.056Z,3.33
2018-05-07T14:10:30.935Z,7.00
2018-05-07T14:10:43.875Z,6.75
2018-05-07T14:10:56.736Z,2.42
2018-05-07T14:11:09.844Z,24.80
2018-05-07T14:11:22.980Z,30.42
2018-05-07T14:11:36.068Z,28.65
2018-05-07T14:11:49.168Z,12.80
2018-05-07T14:12:03.511Z,12.60
2018-05-07T14:12:17.223Z,4.40
2018-05-07T14:12:30.328Z,7.35
2018-05-07T14:12:43.447Z,7.62
2018-05-07T14:12:56.367Z,4.75
2018-05-07T14:13:09.449Z,5.62
2018-05-07T14:13:22.768Z,4.95
2018-05-07T14:13:36.070Z,2.28
2018-05-07T14:13:48.994Z,3.75
2018-05-07T14:14:02.391Z,4.60
2018-05-07T14:14:16.141Z,7.60
2018-05-07T14:14:29.393Z,8.38
2018-05-07T14:14:42.640Z,10.95
2018-05-07T14:14:55.702Z,14.75
2018-05-07T14:15:08.876Z,13.27
2018-05-07T14:15:22.190Z,12.30
